Time;durP1;ratioP1;P1;durP2;ratioP2;P2;SDS_P1;SDS_P2;PMS_P1;PMS_P2;Temp;Humidity;BMP_temperature;BMP_pressure;BME280_temperature;BME280_humidity;BME280_pressure;Samples;Min_cycle;Max_cycle;Signal;HPM_P1;HPM_P2
2023/04/05 00:01:36;;;;;;;17.02;7.38;;;5.50;99.90;;;;;;4931196;29;20034;-72
2023/04/05 00:04:03;;;;;;;13.68;7.20;;;5.50;99.90;;;;;;4930225;29;20092;-71
2023/04/05 00:06:30;;;;;;;12.60;7.35;;;5.60;99.90;;;;;;4928420;29;20464;-71
2023/04/05 00:08:57;;;;;;;13.10;6.85;;;5.60;99.90;;;;;;4935739;29;20143;-72
2023/04/05 00:11:28;;;;;;;12.05;6.82;;;5.50;99.90;;;;;;4928896;29;20028;-71
2023/04/05 00:13:55;;;;;;;12.63;7.15;;;5.50;99.90;;;;;;4929345;29;20027;-71
2023/04/05 00:16:21;;;;;;;14.38;7.28;;;5.50;99.90;;;;;;4926153;29;20392;-71
2023/04/05 00:18:50;;;;;;;12.40;7.32;;;5.50;99.90;;;;;;4931582;29;20185;-72
2023/04/05 00:21:20;;;;;;;11.50;6.72;;;5.60;99.90;;;;;;4931757;29;20063;-71
2023/04/05 00:23:47;;;;;;;13.48;6.75;;;5.50;99.90;;;;;;4929242;29;20381;-71
2023/04/05 00:26:13;;;;;;;10.40;6.95;;;5.40;99.90;;;;;;4925288;29;20028;-70
2023/04/05 00:28:39;;;;;;;13.65;6.93;;;5.30;99.90;;;;;;4933052;29;20122;-71
2023/04/05 00:31:05;;;;;;;14.98;6.38;;;5.30;99.90;;;;;;4934398;29;20031;-71
2023/04/05 00:33:31;;;;;;;15.65;6.88;;;5.30;99.90;;;;;;4931329;28;20371;-70
2023/04/05 00:35:57;;;;;;;11.65;6.57;;;5.30;99.90;;;;;;4926414;29;20063;-70
2023/04/05 00:38:23;;;;;;;14.02;7.13;;;5.30;99.90;;;;;;4928920;29;20066;-72
2023/04/05 00:40:48;;;;;;;12.07;6.85;;;5.30;99.90;;;;;;4933525;29;20094;-70
2023/04/05 00:43:14;;;;;;;12.32;7.38;;;5.30;99.90;;;;;;4937716;29;20035;-71
2023/04/05 00:45:41;;;;;;;12.30;6.63;;;5.30;99.90;;;;;;4931455;29;20032;-71
2023/04/05 00:48:07;;;;;;;10.77;7.25;;;5.20;99.90;;;;;;4928425;29;20123;-71
2023/04/05 00:50:33;;;;;;;11.32;7.00;;;5.20;99.90;;;;;;4929683;29;20583;-70
2023/04/05 00:52:59;;;;;;;18.45;7.13;;;5.20;99.90;;;;;;4934341;29;20027;-71
2023/04/05 00:55:26;;;;;;;11.63;5.68;;;5.10;99.90;;;;;;4928179;28;20016;-71
2023/04/05 00:57:54;;;;;;;12.82;6.45;;;5.00;99.90;;;;;;4922601;29;20039;-71
2023/04/05 01:00:21;;;;;;;10.77;5.70;;;4.90;99.90;;;;;;4934330;29;20022;-71
2023/04/05 01:03:03;;;;;;;10.15;6.32;;;4.90;99.90;;;;;;4929440;29;20389;-71
2023/04/05 01:05:52;;;;;;;10.88;6.63;;;4.90;99.90;;;;;;4924738;29;20602;-70
2023/04/05 01:08:41;;;;;;;10.40;6.03;;;4.90;99.90;;;;;;4933994;29;20031;-71
2023/04/05 01:11:09;;;;;;;10.55;6.78;;;5.00;99.90;;;;;;4931130;29;20028;-71
2023/04/05 01:13:35;;;;;;;14.52;6.70;;;4.90;99.90;;;;;;4925703;29;20023;-71
2023/04/05 01:16:01;;;;;;;12.45;6.65;;;4.90;99.90;;;;;;4925291;29;20023;-71
2023/04/05 01:18:29;;;;;;;13.15;7.05;;;4.80;99.90;;;;;;4929714;29;20066;-71
2023/04/05 01:21:19;;;;;;;13.70;7.43;;;4.90;99.90;;;;;;4924500;29;20481;-71
2023/04/05 01:23:58;;;;;;;12.55;7.55;;;4.90;99.90;;;;;;4919125;29;20060;-71
2023/04/05 01:26:44;;;;;;;10.82;7.20;;;4.80;99.90;;;;;;4923547;29;20043;-71
2023/04/05 01:29:31;;;;;;;13.60;7.57;;;4.80;99.90;;;;;;4932245;29;20039;-70
2023/04/05 01:32:09;;;;;;;17.63;8.95;;;4.80;99.90;;;;;;4927653;29;20024;-71
2023/04/05 01:34:41;;;;;;;15.48;7.97;;;4.80;99.90;;;;;;4929233;29;20075;-71
2023/04/05 01:37:10;;;;;;;15.45;10.13;;;4.80;99.90;;;;;;4934760;29;20039;-70
2023/04/05 01:39:37;;;;;;;15.40;9.63;;;4.70;99.90;;;;;;4930051;29;20032;-73
2023/04/05 01:42:03;;;;;;;18.10;10.20;;;4.70;99.90;;;;;;4921454;29;20560;-71
2023/04/05 01:44:29;;;;;;;17.48;10.02;;;4.70;99.90;;;;;;4934906;29;20102;-71
2023/04/05 01:46:55;;;;;;;20.85;10.30;;;4.70;99.90;;;;;;4922163;29;20032;-71
2023/04/05 01:49:21;;;;;;;18.33;11.13;;;4.70;99.90;;;;;;4933154;29;20461;-71
2023/04/05 01:51:47;;;;;;;17.67;10.88;;;4.70;99.90;;;;;;4922304;29;20036;-71
2023/04/05 01:54:13;;;;;;;18.08;10.32;;;4.60;99.90;;;;;;4929417;29;20151;-71
2023/04/05 01:56:39;;;;;;;17.30;10.10;;;4.60;99.90;;;;;;4924085;29;20032;-71
2023/04/05 01:59:04;;;;;;;19.60;10.38;;;4.60;99.90;;;;;;4930073;29;20107;-71
2023/04/05 02:01:30;;;;;;;20.45;10.73;;;4.60;99.90;;;;;;4929384;29;20126;-71
2023/04/05 02:03:56;;;;;;;16.40;10.00;;;4.60;99.90;;;;;;4924287;29;20095;-71
2023/04/05 02:06:22;;;;;;;16.20;10.57;;;4.60;99.90;;;;;;4934391;28;20031;-71
2023/04/05 02:08:47;;;;;;;17.55;10.55;;;4.60;99.90;;;;;;4923505;29;20127;-72
2023/04/05 02:11:13;;;;;;;20.20;10.35;;;4.50;99.90;;;;;;4930850;29;20131;-71
2023/04/05 02:13:39;;;;;;;20.90;10.73;;;4.50;99.90;;;;;;4929320;29;20048;-72
2023/04/05 02:16:04;;;;;;;18.45;10.93;;;4.50;99.90;;;;;;4926274;29;20436;-71
2023/04/05 02:18:30;;;;;;;20.08;11.75;;;4.50;99.90;;;;;;4925765;29;20024;-71
2023/04/05 02:21:04;;;;;;;21.38;10.13;;;4.40;99.90;;;;;;4928451;29;20036;-71
2023/04/05 02:23:31;;;;;;;19.45;9.57;;;4.40;99.90;;;;;;4931855;29;20136;-70
2023/04/05 02:25:57;;;;;;;15.55;9.38;;;4.30;99.90;;;;;;4929801;29;20024;-70
2023/04/05 02:28:23;;;;;;;15.77;9.90;;;4.30;99.90;;;;;;4927299;28;20043;-72
2023/04/05 02:30:49;;;;;;;21.38;10.52;;;4.10;99.90;;;;;;4929086;29;20039;-71
2023/04/05 02:33:15;;;;;;;18.25;9.82;;;4.20;99.90;;;;;;4933546;29;20370;-70
2023/04/05 02:35:40;;;;;;;18.02;10.07;;;4.20;99.90;;;;;;4923691;29;20358;-72
2023/04/05 02:38:06;;;;;;;20.38;10.80;;;4.20;99.90;;;;;;4930615;29;20044;-71
2023/04/05 02:40:33;;;;;;;22.52;10.98;;;4.20;99.90;;;;;;4926286;29;20024;-70
2023/04/05 02:42:58;;;;;;;19.60;10.07;;;4.20;99.90;;;;;;4929070;29;20111;-71
2023/04/05 02:45:26;;;;;;;22.17;10.77;;;4.20;99.90;;;;;;4930918;29;20602;-71
2023/04/05 02:47:53;;;;;;;19.27;10.40;;;4.00;99.90;;;;;;4924150;29;20046;-71
2023/04/05 02:50:19;;;;;;;17.08;10.10;;;4.00;99.90;;;;;;4928841;29;20485;-70
2023/04/05 02:52:48;;;;;;;17.50;11.50;;;4.00;99.90;;;;;;4938250;29;20023;-70
2023/04/05 02:55:13;;;;;;;15.40;9.75;;;4.00;99.90;;;;;;4927379;29;20489;-70
2023/04/05 02:57:40;;;;;;;18.00;9.55;;;3.90;99.90;;;;;;4946085;28;20094;-70
2023/04/05 03:00:07;;;;;;;17.27;10.45;;;3.80;99.90;;;;;;4924058;29;20382;-70
2023/04/05 03:02:33;;;;;;;19.17;10.95;;;3.70;99.90;;;;;;4938326;29;20031;-70
2023/04/05 03:05:01;;;;;;;17.30;10.40;;;3.90;99.90;;;;;;4934358;29;20030;-70
2023/04/05 03:07:27;;;;;;;17.27;9.98;;;3.90;99.90;;;;;;4928454;29;20058;-70
2023/04/05 03:09:52;;;;;;;20.75;11.48;;;3.90;99.90;;;;;;4925307;29;20036;-70
2023/04/05 03:12:18;;;;;;;22.08;11.55;;;3.80;99.90;;;;;;4931492;29;20164;-70
2023/04/05 03:14:45;;;;;;;17.63;10.15;;;3.70;99.90;;;;;;4928853;29;20024;-70
2023/04/05 03:17:11;;;;;;;19.27;10.85;;;3.60;99.90;;;;;;4931378;29;20028;-71
2023/04/05 03:19:37;;;;;;;18.63;11.27;;;3.70;99.90;;;;;;4927616;29;20489;-71
2023/04/05 03:22:03;;;;;;;16.20;11.35;;;3.80;99.90;;;;;;4925195;29;20036;-71
2023/04/05 03:24:29;;;;;;;19.15;10.85;;;3.60;99.90;;;;;;4921256;29;20051;-71
2023/04/05 03:26:55;;;;;;;16.52;10.48;;;3.60;99.90;;;;;;4930410;29;20023;-71
2023/04/05 03:29:21;;;;;;;17.30;10.60;;;3.60;99.90;;;;;;4926327;29;20047;-71
2023/04/05 03:31:49;;;;;;;21.83;11.98;;;3.60;99.90;;;;;;4929185;29;20036;-71
2023/04/05 03:34:15;;;;;;;19.98;10.75;;;3.60;99.90;;;;;;4922535;29;20028;-71
2023/04/05 03:36:41;;;;;;;20.17;10.30;;;3.60;99.90;;;;;;4929727;29;20083;-71
2023/04/05 03:39:09;;;;;;;19.63;10.00;;;3.60;99.90;;;;;;4928776;29;20061;-71
2023/04/05 03:41:35;;;;;;;17.48;9.88;;;3.60;99.90;;;;;;4932646;29;20020;-71
2023/04/05 03:44:00;;;;;;;18.10;10.27;;;3.60;99.90;;;;;;4925524;29;20095;-71
2023/04/05 03:46:26;;;;;;;25.10;12.13;;;3.60;99.90;;;;;;4926336;29;20036;-70
2023/04/05 03:48:52;;;;;;;22.80;11.90;;;3.60;99.90;;;;;;4930081;29;20059;-70
2023/04/05 03:51:17;;;;;;;23.17;12.20;;;3.60;99.90;;;;;;4928041;29;20063;-71
2023/04/05 03:53:44;;;;;;;17.80;11.23;;;3.60;99.90;;;;;;4932651;29;20510;-70
2023/04/05 03:56:10;;;;;;;19.10;10.73;;;3.50;99.90;;;;;;4925836;29;20078;-70
2023/04/05 03:58:36;;;;;;;18.08;11.60;;;3.60;99.90;;;;;;4933381;29;20464;-71
2023/04/05 04:01:01;;;;;;;20.55;10.95;;;3.60;99.90;;;;;;4925687;29;20075;-71
2023/04/05 04:03:27;;;;;;;24.40;10.80;;;3.50;99.90;;;;;;4930507;29;20034;-71
2023/04/05 04:05:54;;;;;;;20.30;11.20;;;3.60;99.90;;;;;;4921889;29;20366;-71
2023/04/05 04:08:20;;;;;;;19.05;10.57;;;3.50;99.90;;;;;;4924533;29;20094;-71
2023/04/05 04:10:45;;;;;;;21.10;11.40;;;3.50;99.90;;;;;;4929447;29;20467;-72
2023/04/05 04:13:11;;;;;;;16.13;10.95;;;3.50;99.90;;;;;;4927301;29;20100;-71
2023/04/05 04:15:37;;;;;;;14.38;10.07;;;3.50;99.90;;;;;;4929144;29;20019;-71
2023/04/05 04:18:02;;;;;;;21.15;11.32;;;3.40;99.90;;;;;;4924145;29;20397;-71
2023/04/05 04:20:28;;;;;;;20.98;11.00;;;3.40;99.90;;;;;;4929689;29;20126;-71
2023/04/05 04:22:55;;;;;;;20.35;11.23;;;3.40;99.90;;;;;;4923303;29;20163;-71
2023/04/05 04:25:21;;;;;;;19.45;11.55;;;3.30;99.90;;;;;;4932654;29;20568;-70
2023/04/05 04:27:46;;;;;;;19.30;10.77;;;3.30;99.90;;;;;;4929080;29;20123;-70
2023/04/05 04:30:14;;;;;;;13.52;9.52;;;3.20;99.90;;;;;;4924293;29;20028;-70
2023/04/05 04:32:58;;;;;;;19.95;11.02;;;3.20;99.90;;;;;;4944385;28;20501;-71
2023/04/05 04:35:28;;;;;;;16.88;10.65;;;3.30;99.90;;;;;;4922269;29;20103;-71
2023/04/05 04:37:56;;;;;;;21.02;11.73;;;3.30;99.90;;;;;;4923733;29;20106;-70
2023/04/05 04:40:28;;;;;;;19.95;11.43;;;3.30;99.90;;;;;;4926986;29;20032;-70
2023/04/05 04:42:57;;;;;;;22.15;12.65;;;3.30;99.90;;;;;;4935678;28;20035;-70
2023/04/05 04:45:23;;;;;;;22.02;12.35;;;3.30;99.90;;;;;;4929394;29;20031;-70
2023/04/05 04:47:52;;;;;;;21.67;11.82;;;3.20;99.90;;;;;;4930285;29;20039;-70
2023/04/05 04:50:19;;;;;;;22.35;12.57;;;3.10;99.90;;;;;;4923770;29;20090;-73
2023/04/05 04:52:45;;;;;;;19.48;11.00;;;3.10;99.90;;;;;;4926959;29;20020;-70
2023/04/05 04:55:15;;;;;;;21.85;12.73;;;3.10;99.90;;;;;;4925480;29;20023;-70
2023/04/05 04:57:41;;;;;;;20.33;11.85;;;3.10;99.90;;;;;;4927657;29;20388;-70
2023/04/05 05:00:14;;;;;;;19.58;11.48;;;3.10;99.90;;;;;;4932378;29;20028;-71
2023/04/05 05:02:41;;;;;;;20.98;12.18;;;3.20;99.90;;;;;;4929395;29;20495;-73
2023/04/05 05:05:07;;;;;;;17.88;11.20;;;3.20;99.90;;;;;;4924092;29;20138;-73
2023/04/05 05:07:34;;;;;;;20.58;12.25;;;3.20;99.90;;;;;;4924646;29;20036;-72
2023/04/05 05:10:00;;;;;;;20.02;11.32;;;3.10;99.90;;;;;;4928548;29;20031;-72
2023/04/05 05:12:26;;;;;;;17.75;11.27;;;3.10;99.90;;;;;;4928744;29;20036;-71
2023/04/05 05:14:52;;;;;;;23.13;11.30;;;3.10;99.90;;;;;;4926915;29;20485;-71
2023/04/05 05:17:17;;;;;;;25.35;12.45;;;3.00;99.90;;;;;;4923676;29;20032;-70
2023/04/05 05:19:44;;;;;;;22.77;12.57;;;2.90;99.90;;;;;;4928593;29;20032;-70
2023/04/05 05:22:09;;;;;;;19.70;12.27;;;2.90;99.90;;;;;;4922003;29;20036;-72
2023/04/05 05:24:36;;;;;;;19.73;12.02;;;3.00;99.90;;;;;;4922425;29;20414;-72
2023/04/05 05:27:01;;;;;;;20.90;11.95;;;2.90;99.90;;;;;;4925341;29;20151;-71
2023/04/05 05:29:27;;;;;;;20.67;10.73;;;3.00;99.90;;;;;;4928965;29;20033;-71
2023/04/05 05:31:54;;;;;;;19.65;11.57;;;3.00;99.90;;;;;;4923117;29;20092;-72
2023/04/05 05:34:20;;;;;;;15.60;11.15;;;3.00;99.90;;;;;;4928915;29;20027;-72
2023/04/05 05:36:46;;;;;;;22.00;11.75;;;2.90;99.90;;;;;;4920999;29;20060;-73
2023/04/05 05:39:12;;;;;;;19.65;12.15;;;2.90;99.90;;;;;;4939326;28;20080;-72
2023/04/05 05:41:37;;;;;;;18.13;11.13;;;3.00;99.90;;;;;;4926141;29;20473;-72
2023/04/05 05:44:04;;;;;;;21.58;10.75;;;2.90;99.90;;;;;;4925745;29;20028;-73
2023/04/05 05:46:29;;;;;;;20.88;10.93;;;3.00;99.90;;;;;;4927378;29;20039;-74
2023/04/05 05:48:55;;;;;;;20.15;11.23;;;3.00;99.90;;;;;;4931200;29;20039;-72
2023/04/05 05:51:21;;;;;;;22.02;11.93;;;3.00;99.90;;;;;;4927678;29;20087;-73
2023/04/05 05:53:47;;;;;;;24.05;11.75;;;3.00;99.90;;;;;;4930585;29;20039;-73
2023/04/05 05:56:12;;;;;;;21.05;10.88;;;3.00;99.90;;;;;;4921869;29;20028;-73
2023/04/05 05:58:38;;;;;;;21.30;11.30;;;3.00;99.90;;;;;;4920039;29;20111;-74
2023/04/05 06:01:06;;;;;;;17.90;10.68;;;3.00;99.90;;;;;;4930440;29;20100;-73
2023/04/05 06:03:32;;;;;;;20.35;11.55;;;2.90;99.90;;;;;;4930468;28;20076;-73
2023/04/05 06:05:58;;;;;;;22.08;10.85;;;2.90;99.90;;;;;;4933120;29;20028;-73
2023/04/05 06:08:28;;;;;;;22.55;12.70;;;3.00;99.90;;;;;;4945316;28;20050;-73
2023/04/05 06:10:54;;;;;;;20.65;11.73;;;3.00;99.90;;;;;;4934207;29;20470;-73
2023/04/05 06:13:20;;;;;;;21.73;10.60;;;3.10;99.90;;;;;;4929414;29;20079;-73
2023/04/05 06:15:49;;;;;;;22.60;11.55;;;3.20;99.90;;;;;;4930020;29;20242;-71
2023/04/05 06:18:15;;;;;;;20.88;11.40;;;3.10;99.90;;;;;;4925816;29;20031;-71
2023/04/05 06:20:44;;;;;;;25.13;12.15;;;3.20;99.90;;;;;;4931985;29;20023;-71
2023/04/05 06:23:10;;;;;;;22.13;11.95;;;3.10;99.90;;;;;;4928321;29;20036;-73
2023/04/05 06:25:36;;;;;;;19.25;12.07;;;3.20;99.90;;;;;;4947300;28;20383;-71
2023/04/05 06:28:03;;;;;;;21.92;12.32;;;3.20;99.90;;;;;;4929260;29;20044;-72
2023/04/05 06:30:30;;;;;;;24.08;12.23;;;3.30;99.90;;;;;;4930240;29;20020;-71
2023/04/05 06:32:56;;;;;;;20.17;12.15;;;3.40;99.90;;;;;;4924664;29;20276;-70
2023/04/05 06:35:23;;;;;;;19.77;10.88;;;3.40;99.90;;;;;;4928476;29;20051;-70
2023/04/05 06:37:49;;;;;;;24.35;11.98;;;3.50;99.90;;;;;;4923988;29;20501;-71
2023/04/05 06:40:16;;;;;;;22.17;12.55;;;3.50;99.90;;;;;;4924062;29;20031;-71
2023/04/05 06:42:42;;;;;;;21.33;12.68;;;3.60;99.90;;;;;;4929631;29;20043;-71
2023/04/05 06:45:09;;;;;;;24.13;12.68;;;3.60;99.90;;;;;;4938256;29;20030;-71
2023/04/05 06:47:36;;;;;;;27.42;13.75;;;3.70;99.90;;;;;;4933748;29;20119;-71
2023/04/05 06:50:02;;;;;;;24.10;14.35;;;3.80;99.90;;;;;;4930954;29;20019;-72
2023/04/05 06:52:28;;;;;;;22.73;12.13;;;3.70;99.90;;;;;;4926466;29;20028;-73
2023/04/05 06:54:55;;;;;;;22.05;12.73;;;3.80;99.90;;;;;;4928912;29;20529;-73
2023/04/05 06:57:21;;;;;;;23.73;13.40;;;3.90;99.90;;;;;;4928675;29;20067;-73
2023/04/05 06:59:46;;;;;;;28.85;15.52;;;4.00;99.90;;;;;;4931750;29;20056;-71
2023/04/05 07:02:12;;;;;;;21.90;13.15;;;4.00;99.90;;;;;;4930724;29;20058;-69
2023/04/05 07:04:38;;;;;;;23.10;13.43;;;4.10;99.90;;;;;;4928163;29;20024;-73
2023/04/05 07:07:05;;;;;;;23.42;14.70;;;4.20;99.90;;;;;;4935394;29;20035;-70
2023/04/05 07:09:34;;;;;;;24.40;14.45;;;4.30;99.90;;;;;;4927427;29;20028;-73
2023/04/05 07:12:01;;;;;;;28.35;16.85;;;4.30;99.90;;;;;;4929365;29;20055;-73
2023/04/05 07:14:29;;;;;;;26.15;16.13;;;4.40;99.90;;;;;;4928721;29;20027;-73
2023/04/05 07:16:55;;;;;;;25.45;15.98;;;4.50;99.90;;;;;;4929989;29;20469;-73
2023/04/05 07:19:21;;;;;;;32.35;18.75;;;4.60;99.90;;;;;;4924366;29;20035;-74
2023/04/05 07:21:47;;;;;;;31.95;16.75;;;4.70;99.90;;;;;;4925355;29;20039;-71
2023/04/05 07:24:12;;;;;;;32.03;17.30;;;4.70;99.90;;;;;;4928051;29;20034;-70
2023/04/05 07:26:38;;;;;;;29.23;16.08;;;4.80;99.90;;;;;;4928768;29;20114;-72
2023/04/05 07:29:06;;;;;;;27.65;15.95;;;4.90;99.90;;;;;;4932136;29;20124;-72
2023/04/05 07:31:31;;;;;;;26.15;15.85;;;4.90;99.90;;;;;;4925496;29;20028;-72
2023/04/05 07:33:59;;;;;;;29.45;15.75;;;5.10;99.90;;;;;;4931616;29;20039;-73
2023/04/05 07:36:25;;;;;;;30.88;15.60;;;5.20;99.90;;;;;;4927728;29;20032;-72
2023/04/05 07:38:55;;;;;;;28.98;15.55;;;5.40;99.90;;;;;;4926623;29;20488;-72
2023/04/05 07:41:22;;;;;;;24.85;15.05;;;5.50;99.90;;;;;;4927688;29;20066;-73
2023/04/05 07:43:48;;;;;;;24.88;14.90;;;5.60;99.90;;;;;;4926320;29;20063;-73
2023/04/05 07:46:14;;;;;;;23.65;15.40;;;5.80;99.90;;;;;;4922137;29;20104;-73
2023/04/05 07:48:40;;;;;;;23.08;15.60;;;6.00;99.90;;;;;;4927465;29;20024;-73
2023/04/05 07:51:08;;;;;;;22.70;14.85;;;6.10;99.90;;;;;;4929690;29;20437;-71
2023/04/05 07:53:35;;;;;;;25.52;14.13;;;6.20;99.90;;;;;;4932028;29;20032;-72
2023/04/05 07:56:08;;;;;;;22.23;15.57;;;6.40;99.90;;;;;;4928022;29;20031;-70
2023/04/05 07:58:39;;;;;;;22.85;14.60;;;6.60;99.90;;;;;;4931826;29;20049;-71
2023/04/05 08:01:05;;;;;;;23.90;13.93;;;6.80;99.90;;;;;;4932407;29;20522;-71
2023/04/05 08:03:33;;;;;;;28.40;14.48;;;7.00;99.90;;;;;;4931553;29;20107;-71
2023/04/05 08:06:08;;;;;;;25.55;14.50;;;7.20;99.90;;;;;;4926478;29;20034;-71
2023/04/05 08:08:34;;;;;;;21.38;14.43;;;7.30;99.90;;;;;;4925852;29;20504;-72
2023/04/05 08:11:02;;;;;;;28.20;14.90;;;7.50;99.90;;;;;;4921735;29;20036;-72
2023/04/05 08:13:28;;;;;;;20.80;13.45;;;7.70;99.90;;;;;;4927873;28;20035;-72
2023/04/05 08:15:58;;;;;;;21.10;13.73;;;7.90;99.90;;;;;;4923380;29;20036;-73
2023/04/05 08:18:24;;;;;;;19.92;11.63;;;8.00;99.90;;;;;;4937062;29;20024;-72
2023/04/05 08:20:55;;;;;;;13.95;10.98;;;8.20;99.90;;;;;;4922503;29;20109;-73
2023/04/05 08:23:21;;;;;;;16.65;10.95;;;8.30;99.90;;;;;;4928879;29;20043;-73
2023/04/05 08:25:47;;;;;;;16.63;11.45;;;8.30;99.90;;;;;;4925823;29;20030;-74
2023/04/05 08:28:13;;;;;;;16.55;10.52;;;8.50;99.90;;;;;;4930634;29;20067;-72
2023/04/05 08:30:39;;;;;;;15.30;10.07;;;8.70;99.90;;;;;;4929805;29;20032;-73
2023/04/05 08:33:06;;;;;;;13.13;8.85;;;8.90;99.90;;;;;;4928408;29;20031;-74
2023/04/05 08:35:31;;;;;;;17.10;9.68;;;9.00;99.90;;;;;;4930307;29;20023;-74
2023/04/05 08:37:57;;;;;;;15.68;8.23;;;9.10;99.90;;;;;;4926984;29;20453;-73
2023/04/05 08:40:38;;;;;;;16.13;8.50;;;9.30;99.90;;;;;;4927201;29;20020;-72
2023/04/05 08:43:12;;;;;;;18.63;8.88;;;9.40;99.90;;;;;;4924545;29;20062;-74
2023/04/05 08:45:47;;;;;;;10.73;7.70;;;9.40;99.90;;;;;;4924654;29;20032;-74
2023/04/05 08:48:12;;;;;;;18.25;8.77;;;9.60;99.90;;;;;;4927135;29;20146;-74
2023/04/05 08:50:38;;;;;;;12.40;7.43;;;9.70;99.90;;;;;;4931313;29;20477;-74
2023/04/05 08:53:04;;;;;;;12.45;8.23;;;9.70;99.90;;;;;;4928608;29;20059;-74
2023/04/05 08:55:30;;;;;;;12.93;8.43;;;9.60;99.90;;;;;;4932369;29;20496;-74
2023/04/05 08:57:59;;;;;;;10.02;6.35;;;9.80;99.90;;;;;;4934028;29;20040;-74
2023/04/05 09:00:26;;;;;;;13.63;6.70;;;10.00;99.90;;;;;;4929020;29;20020;-74
2023/04/05 09:02:56;;;;;;;11.80;5.95;;;10.20;99.90;;;;;;4931961;28;20046;-74
2023/04/05 09:05:24;;;;;;;11.60;6.82;;;10.00;99.90;;;;;;4925107;29;20023;-73
2023/04/05 09:07:50;;;;;;;10.93;6.90;;;10.20;99.90;;;;;;4929863;29;20821;-73
2023/04/05 09:10:19;;;;;;;12.70;6.80;;;10.20;99.90;;;;;;4929829;28;20032;-73
2023/04/05 09:12:45;;;;;;;12.68;7.43;;;10.30;99.90;;;;;;4925378;29;20435;-74
2023/04/05 09:15:10;;;;;;;13.07;7.30;;;10.30;99.90;;;;;;4929480;29;20028;-73
2023/04/05 09:17:39;;;;;;;10.43;6.38;;;10.50;99.90;;;;;;4920093;29;20074;-73
2023/04/05 09:20:06;;;;;;;8.68;6.07;;;10.60;99.90;;;;;;4930592;29;20039;-73
2023/04/05 09:22:42;;;;;;;10.55;7.13;;;10.50;99.90;;;;;;4934746;29;20131;-75
2023/04/05 09:25:08;;;;;;;9.45;6.40;;;10.60;99.90;;;;;;4934152;29;20031;-77
2023/04/05 09:27:33;;;;;;;12.32;6.57;;;10.80;99.90;;;;;;4923618;29;20070;-75
2023/04/05 09:29:59;;;;;;;10.85;6.63;;;11.10;99.90;;;;;;4928576;29;20039;-76
2023/04/05 09:32:29;;;;;;;9.25;5.40;;;11.10;99.90;;;;;;4926102;29;20031;-77
2023/04/05 09:35:03;;;;;;;10.75;6.38;;;11.40;99.90;;;;;;4934896;29;20110;-75
2023/04/05 09:37:28;;;;;;;9.65;6.10;;;11.50;99.90;;;;;;4927816;28;20500;-74
2023/04/05 09:40:02;;;;;;;9.75;6.80;;;11.50;99.90;;;;;;4926011;29;20063;-75
2023/04/05 09:42:42;;;;;;;12.93;7.20;;;11.50;99.90;;;;;;4928789;29;20051;-72
2023/04/05 09:45:08;;;;;;;10.98;5.70;;;11.60;99.90;;;;;;4944396;28;20027;-71
2023/04/05 09:47:33;;;;;;;10.15;6.00;;;11.60;99.90;;;;;;4923328;29;20541;-73
2023/04/05 09:50:00;;;;;;;9.30;6.10;;;11.60;98.70;;;;;;4925043;29;20032;-72
2023/04/05 09:52:30;;;;;;;8.90;6.07;;;11.60;98.60;;;;;;4923498;29;20036;-71
2023/04/05 09:55:02;;;;;;;11.43;6.18;;;11.80;99.20;;;;;;4926391;29;20500;-70
2023/04/05 09:57:32;;;;;;;9.50;6.63;;;11.80;97.80;;;;;;4920376;29;20035;-74
2023/04/05 09:59:57;;;;;;;10.43;6.45;;;11.90;98.50;;;;;;4928778;29;20147;-70
2023/04/05 10:02:24;;;;;;;15.23;7.00;;;12.10;98.30;;;;;;4924537;29;20107;-72
2023/04/05 10:04:50;;;;;;;8.68;6.63;;;12.30;98.40;;;;;;4928014;29;20422;-70
2023/04/05 10:07:18;;;;;;;10.20;6.57;;;12.60;98.60;;;;;;4926924;29;20183;-73
2023/04/05 10:09:45;;;;;;;10.00;7.13;;;12.80;99.80;;;;;;4932095;28;20028;-77
2023/04/05 10:12:25;;;;;;;9.43;6.57;;;12.90;99.90;;;;;;4930563;29;20955;-69
2023/04/05 10:14:50;;;;;;;11.30;6.68;;;13.00;97.70;;;;;;4923812;29;20388;-70
2023/04/05 10:17:50;;;;;;;10.32;7.30;;;13.00;97.00;;;;;;4933021;29;20034;-71
2023/04/05 10:20:16;;;;;;;12.57;6.80;;;13.20;98.00;;;;;;4927022;29;20024;-76
2023/04/05 10:22:50;;;;;;;7.80;6.40;;;13.40;97.70;;;;;;4921831;29;20034;-73
2023/04/05 10:25:34;;;;;;;10.85;6.30;;;13.20;95.80;;;;;;4925999;29;20024;-71
2023/04/05 10:28:09;;;;;;;8.82;6.22;;;13.00;97.30;;;;;;4941869;28;20066;-73
2023/04/05 10:30:37;;;;;;;13.68;7.22;;;13.20;96.80;;;;;;4926546;29;20030;-72
2023/04/05 10:33:42;;;;;;;15.48;6.85;;;13.10;95.10;;;;;;4928599;29;20079;-72
2023/04/05 10:36:28;;;;;;;9.20;6.18;;;13.30;99.10;;;;;;4929833;29;20441;-72
2023/04/05 10:39:20;;;;;;;8.80;6.68;;;13.20;92.80;;;;;;4926300;29;20047;-71
2023/04/05 10:41:46;;;;;;;11.25;7.22;;;13.00;94.40;;;;;;4927679;29;20033;-73
2023/04/05 10:44:14;;;;;;;10.50;6.85;;;13.10;94.90;;;;;;4931328;29;20024;-72
2023/04/05 10:46:40;;;;;;;9.77;7.18;;;13.30;95.80;;;;;;4926053;29;20036;-73
2023/04/05 10:49:12;;;;;;;11.30;7.57;;;13.50;93.50;;;;;;4924075;29;20046;-72
2023/04/05 10:51:38;;;;;;;10.03;7.03;;;13.80;95.20;;;;;;4933478;29;20027;-74
2023/04/05 10:54:07;;;;;;;9.82;7.22;;;13.50;91.60;;;;;;4944084;28;20102;-72
2023/04/05 10:56:33;;;;;;;10.32;6.65;;;13.70;92.10;;;;;;4931129;29;20024;-72
2023/04/05 10:58:59;;;;;;;10.77;7.53;;;13.70;93.70;;;;;;4935374;29;20042;-72
2023/04/05 11:01:26;;;;;;;10.65;7.22;;;13.70;92.10;;;;;;4926437;29;20026;-73
2023/04/05 11:03:53;;;;;;;10.38;7.50;;;13.60;90.20;;;;;;4931676;29;20118;-72
2023/04/05 11:06:28;;;;;;;10.48;6.95;;;13.70;93.40;;;;;;4938767;29;20079;-72
2023/04/05 11:09:10;;;;;;;10.73;6.68;;;13.60;92.60;;;;;;4929691;29;20044;-73
2023/04/05 11:11:40;;;;;;;10.38;7.10;;;13.80;91.70;;;;;;4925512;29;20103;-73
2023/04/05 11:14:24;;;;;;;10.90;8.07;;;14.00;92.20;;;;;;4924480;29;20039;-72
2023/04/05 11:16:55;;;;;;;11.10;7.22;;;14.10;91.50;;;;;;4931101;29;20027;-72
2023/04/05 11:19:46;;;;;;;8.60;7.15;;;14.30;91.40;;;;;;4925441;29;20024;-72
2023/04/05 11:22:13;;;;;;;10.13;7.38;;;14.10;90.30;;;;;;4931658;29;20114;-73
2023/04/05 11:24:56;;;;;;;9.15;7.13;;;14.20;91.70;;;;;;4934412;29;20028;-72
2023/04/05 11:27:35;;;;;;;11.07;7.15;;;14.10;93.10;;;;;;4928128;29;20396;-72
2023/04/05 11:30:03;;;;;;;10.00;7.82;;;14.10;90.20;;;;;;4934164;29;20028;-73
2023/04/05 11:32:43;;;;;;;10.35;7.80;;;13.90;87.50;;;;;;4926185;29;20023;-74
2023/04/05 11:35:22;;;;;;;10.75;8.55;;;14.10;90.10;;;;;;4930504;29;20047;-72
2023/04/05 11:37:59;;;;;;;11.57;7.68;;;13.90;88.30;;;;;;4928494;29;20493;-74
2023/04/05 11:40:36;;;;;;;11.23;7.45;;;14.00;90.90;;;;;;4930268;29;20473;-73
2023/04/05 11:43:06;;;;;;;8.65;7.45;;;14.30;90.00;;;;;;4925246;29;20059;-73
2023/04/05 11:45:33;;;;;;;10.95;6.95;;;14.60;91.50;;;;;;4929508;29;20628;-72
2023/04/05 11:48:10;;;;;;;13.13;7.70;;;14.60;90.90;;;;;;4928485;29;20048;-74
2023/04/05 11:50:37;;;;;;;10.23;7.50;;;14.70;90.60;;;;;;4936465;29;20393;-72
2023/04/05 11:53:16;;;;;;;9.05;7.18;;;14.60;91.10;;;;;;4930371;29;20024;-72
2023/04/05 11:55:47;;;;;;;10.80;7.57;;;14.60;91.20;;;;;;4927229;29;20032;-74
2023/04/05 11:58:17;;;;;;;15.07;7.65;;;14.60;87.60;;;;;;4926434;29;20484;-73
2023/04/05 12:00:45;;;;;;;8.52;7.55;;;14.90;91.90;;;;;;4925118;28;20035;-73
2023/04/05 12:03:14;;;;;;;13.45;8.02;;;14.90;89.20;;;;;;4929308;29;20034;-72
2023/04/05 12:05:46;;;;;;;13.23;7.38;;;15.00;91.10;;;;;;4921944;29;20039;-72
2023/04/05 12:08:11;;;;;;;13.98;7.82;;;15.10;89.50;;;;;;4925432;29;20056;-73
2023/04/05 12:10:37;;;;;;;13.82;8.05;;;15.20;90.10;;;;;;4926498;29;20483;-73
2023/04/05 12:13:03;;;;;;;11.88;7.80;;;15.20;90.10;;;;;;4926131;29;20560;-73
2023/04/05 12:15:28;;;;;;;9.48;7.43;;;15.10;87.70;;;;;;4930836;29;20051;-73
2023/04/05 12:17:54;;;;;;;12.25;7.75;;;15.20;89.90;;;;;;4926733;29;20389;-75
2023/04/05 12:20:23;;;;;;;12.50;7.78;;;15.20;89.60;;;;;;4932193;29;20106;-75
2023/04/05 12:22:51;;;;;;;10.38;7.88;;;15.20;86.70;;;;;;4925637;29;20042;-73
2023/04/05 12:25:18;;;;;;;12.65;8.63;;;15.20;86.20;;;;;;4925733;29;20038;-73
2023/04/05 12:27:44;;;;;;;9.10;7.15;;;15.30;87.70;;;;;;4920903;29;20040;-73
2023/04/05 12:30:16;;;;;;;12.48;7.60;;;15.50;87.00;;;;;;4929716;29;20032;-72
2023/04/05 12:32:42;;;;;;;13.80;7.40;;;15.30;85.90;;;;;;4931025;29;20106;-73
2023/04/05 12:35:33;;;;;;;10.32;8.00;;;15.40;85.90;;;;;;4933672;29;20106;-74
2023/04/05 12:38:04;;;;;;;12.40;8.80;;;15.50;85.80;;;;;;4935436;28;20493;-73
2023/04/05 12:40:32;;;;;;;12.20;7.88;;;15.50;87.30;;;;;;4928740;29;20056;-74
2023/04/05 12:43:07;;;;;;;8.90;7.95;;;15.60;86.40;;;;;;4931650;29;20429;-76
2023/04/05 12:45:40;;;;;;;12.02;8.07;;;15.50;85.20;;;;;;4927939;29;20055;-77
2023/04/05 12:48:13;;;;;;;15.02;9.10;;;15.60;88.30;;;;;;4932400;29;20032;-80